Carnival Victory — 3FFL8 — position and weather

sailwx.info

Track history (hours):
 
Tides and Currents Weather Stations Pressure Air Temp Water Temp Dewpoint Dewpoint Depression Visibility Wind Speed Wind Dir Waves Ship Positions

Carnival Victory

Operator: Carnival Cruise Lines

Last reported at 2015-Mar-27 21:30 UTC. Time now 2015-Mar-28 00:29 UTC.
Position N 26°32' W 078°45'.

MMSI: 355263000.

Date/timePositionNaut miles runAvg speedWind from/ knotsBaromVisibWave heightAir tempDewpointWater temp
2015-Mar-27 21:30N 26°32' W 078°45'0 0.0
2015-Mar-27 20:06N 26°32' W 078°45'0 0.0
2015-Mar-27 10:26N 26°32' W 078°45'0 0.0
2015-Mar-27 09:33N 26°32' W 078°45'0 0.0
2015-Mar-27 08:15N 26°32' W 078°45'0 0.0
2015-Mar-27 06:34N 26°32' W 078°45'0 0.0
2015-Mar-27 05:34N 26°32' W 078°45'0 0.0
2015-Mar-27 04:34N 26°32' W 078°45'0 0.0
2015-Mar-27 03:33N 26°32' W 078°45'0 0.0
2015-Mar-27 02:33N 26°32' W 078°45'0 0.0
2015-Mar-27 01:34N 26°32' W 078°45'0 0.0
2015-Mar-27 00:33N 26°32' W 078°45'0 0.0
2015-Mar-26 06:15N 26°32' W 078°46'0 0.0
2015-Mar-26 05:33N 26°32' W 078°46'0 0.0
2015-Mar-26 04:32N 26°32' W 078°46'0 0.0
2015-Mar-26 03:33N 26°32' W 078°46'0 0.0
2015-Mar-26 02:34N 26°32' W 078°46'0 0.0
2015-Mar-26 01:34N 26°32' W 078°46'0 0.0
2015-Mar-26 00:34N 26°32' W 078°46'0 0.0
2015-Mar-25 23:34N 26°32' W 078°46'0 0.0
2015-Mar-25 22:34N 26°32' W 078°46'0 0.0
2015-Mar-25 21:33N 26°32' W 078°46'0 0.0
2015-Mar-25 20:33N 26°32' W 078°46'0 0.0
2015-Mar-25 19:33N 26°32' W 078°46'0 0.0
2015-Mar-25 15:32N 26°32' W 078°46'0 0.0
2015-Mar-23 17:23N 26°32' W 078°45'0 0.0
2015-Mar-23 16:33N 26°32' W 078°45'0 0.0
2015-Mar-23 15:32N 26°32' W 078°45'0 0.0
2015-Mar-23 14:32N 26°32' W 078°45'0 0.2
2015-Mar-23 13:33N 26°32' W 078°46'0 0.0
2015-Mar-23 12:33N 26°32' W 078°46'0 0.0
2015-Mar-23 11:33N 26°32' W 078°46'0 0.0
2015-Mar-23 10:33N 26°32' W 078°46'0 0.0
2015-Mar-23 09:33N 26°32' W 078°46'0 0.0
2015-Mar-23 08:33N 26°32' W 078°46'0 0.0
2015-Mar-23 07:33N 26°32' W 078°46'0 0.0
2015-Mar-23 06:27N 26°32' W 078°46'0 0.0
2015-Mar-23 00:25N 26°32' W 078°46'0 0.0
2015-Mar-22 09:31N 26°32' W 078°45'0 0.0
2015-Mar-22 08:17N 26°32' W 078°45'1 0.1
2015-Mar-22 03:23N 26°31' W 078°46'7 8.8
2015-Mar-22 02:33N 26°26' W 078°52'1817.9
2015-Mar-22 01:33N 26°17' W 079°09'2121.5
2015-Mar-22 00:33N 26°07' W 079°30'2222.1
2015-Mar-21 23:33N 25°54' W 079°50'1817.9
2015-Mar-21 22:33N 25°46' W 080°07'3 2.9
2015-Mar-21 21:31N 25°47' W 080°10'0 0.0
2015-Mar-21 20:28N 25°47' W 080°10'0 0.0
2015-Mar-21 19:30N 25°47' W 080°10'0 0.0
2015-Mar-21 18:30N 25°47' W 080°10'0 0.0
2015-Mar-21 17:20N 25°47' W 080°10'0 0.0
2015-Mar-21 16:32N 25°47' W 080°10'0 0.0
2015-Mar-21 15:26N 25°47' W 080°10'0 0.0
2015-Mar-21 14:31N 25°47' W 080°10'0 0.0
2015-Mar-21 13:28N 25°47' W 080°10'0 0.0
2015-Mar-21 12:33N 25°47' W 080°10'0 0.0
2015-Mar-21 11:30N 25°47' W 080°10'0 0.0
2015-Mar-21 10:33N 25°47' W 080°10'0 0.0
2015-Mar-21 09:32N 25°47' W 080°10'5 4.7
2015-Mar-21 08:33N 25°46' W 080°05'1110.9
2015-Mar-21 07:33N 25°51' W 079°55'1111.4
2015-Mar-21 06:33N 25°58' W 079°45'1111.3
2015-Mar-21 05:33N 26°03' W 079°34'1010.0
2015-Mar-21 04:33N 26°09' W 079°24'1010.1
2015-Mar-21 03:33N 26°14' W 079°15'1110.9
2015-Mar-21 02:31N 26°16' W 079°02'1111.9
2015-Mar-21 01:33N 26°14' W 078°50'1311.8
2015-Mar-21 00:26N 26°11' W 078°35'1311.5
2015-Mar-20 23:19N 26°08' W 078°21'2111.2
2015-Mar-20 21:26N 25°58' W 078°01'9 9.1
2015-Mar-20 20:28N 25°50' W 077°56'0 0.1
2015-Mar-20 19:30N 25°50' W 077°56'0 0.0
2015-Mar-20 18:23N 25°50' W 077°56'0 0.0
2015-Mar-20 17:32N 25°50' W 077°56'1 0.1
2015-Mar-20 11:23N 25°50' W 077°56'27 0.8
2015-Mar-19 02:04N 26°10' W 078°17'34 7.5
2015-Mar-18 21:32N 26°31' W 078°46'0 0.0
2015-Mar-18 18:24N 26°31' W 078°46'8 1.0
2015-Mar-18 10:08N 26°23' W 078°47'710.3
2015-Mar-18 09:27N 26°17' W 078°42'910.3
2015-Mar-18 08:33N 26°18' W 078°32'1410.7
2015-Mar-18 07:16N 26°20' W 078°17'  
Track history (hours):
 
Tides and Currents Weather Stations Pressure Air Temp Water Temp Dewpoint Dewpoint Depression Visibility Wind Speed Wind Dir Waves Ship Positions

Carnival Victory

Operator: Carnival Cruise Lines

Last reported at 2015-Mar-27 21:30 UTC. Time now 2015-Mar-28 00:29 UTC.
Position N 26°32' W 078°45'.

MMSI: 355263000.

Date/timePositionNaut miles runAvg speedWind from/ knotsBaromVisibWave heightAir tempDewpointWater temp
2015-Mar-27 21:30N 26°32' W 078°45'0 0.0
2015-Mar-27 20:06N 26°32' W 078°45'0 0.0
2015-Mar-27 10:26N 26°32' W 078°45'0 0.0
2015-Mar-27 09:33N 26°32' W 078°45'0 0.0
2015-Mar-27 08:15N 26°32' W 078°45'0 0.0
2015-Mar-27 06:34N 26°32' W 078°45'0 0.0
2015-Mar-27 05:34N 26°32' W 078°45'0 0.0
2015-Mar-27 04:34N 26°32' W 078°45'0 0.0
2015-Mar-27 03:33N 26°32' W 078°45'0 0.0
2015-Mar-27 02:33N 26°32' W 078°45'0 0.0
2015-Mar-27 01:34N 26°32' W 078°45'0 0.0
2015-Mar-27 00:33N 26°32' W 078°45'0 0.0
2015-Mar-26 06:15N 26°32' W 078°46'0 0.0
2015-Mar-26 05:33N 26°32' W 078°46'0 0.0
2015-Mar-26 04:32N 26°32' W 078°46'0 0.0
2015-Mar-26 03:33N 26°32' W 078°46'0 0.0
2015-Mar-26 02:34N 26°32' W 078°46'0 0.0
2015-Mar-26 01:34N 26°32' W 078°46'0 0.0
2015-Mar-26 00:34N 26°32' W 078°46'0 0.0
2015-Mar-25 23:34N 26°32' W 078°46'0 0.0
2015-Mar-25 22:34N 26°32' W 078°46'0 0.0
2015-Mar-25 21:33N 26°32' W 078°46'0 0.0
2015-Mar-25 20:33N 26°32' W 078°46'0 0.0
2015-Mar-25 19:33N 26°32' W 078°46'0 0.0
2015-Mar-25 15:32N 26°32' W 078°46'0 0.0
2015-Mar-23 17:23N 26°32' W 078°45'0 0.0
2015-Mar-23 16:33N 26°32' W 078°45'0 0.0
2015-Mar-23 15:32N 26°32' W 078°45'0 0.0
2015-Mar-23 14:32N 26°32' W 078°45'0 0.2
2015-Mar-23 13:33N 26°32' W 078°46'0 0.0
2015-Mar-23 12:33N 26°32' W 078°46'0 0.0
2015-Mar-23 11:33N 26°32' W 078°46'0 0.0
2015-Mar-23 10:33N 26°32' W 078°46'0 0.0
2015-Mar-23 09:33N 26°32' W 078°46'0 0.0
2015-Mar-23 08:33N 26°32' W 078°46'0 0.0
2015-Mar-23 07:33N 26°32' W 078°46'0 0.0
2015-Mar-23 06:27N 26°32' W 078°46'0 0.0
2015-Mar-23 00:25N 26°32' W 078°46'0 0.0
2015-Mar-22 09:31N 26°32' W 078°45'0 0.0
2015-Mar-22 08:17N 26°32' W 078°45'1 0.1
2015-Mar-22 03:23N 26°31' W 078°46'7 8.8
2015-Mar-22 02:33N 26°26' W 078°52'1817.9
2015-Mar-22 01:33N 26°17' W 079°09'2121.5
2015-Mar-22 00:33N 26°07' W 079°30'2222.1
2015-Mar-21 23:33N 25°54' W 079°50'1817.9
2015-Mar-21 22:33N 25°46' W 080°07'3 2.9
2015-Mar-21 21:31N 25°47' W 080°10'0 0.0
2015-Mar-21 20:28N 25°47' W 080°10'0 0.0
2015-Mar-21 19:30N 25°47' W 080°10'0 0.0
2015-Mar-21 18:30N 25°47' W 080°10'0 0.0
2015-Mar-21 17:20N 25°47' W 080°10'0 0.0
2015-Mar-21 16:32N 25°47' W 080°10'0 0.0
2015-Mar-21 15:26N 25°47' W 080°10'0 0.0
2015-Mar-21 14:31N 25°47' W 080°10'0 0.0
2015-Mar-21 13:28N 25°47' W 080°10'0 0.0
2015-Mar-21 12:33N 25°47' W 080°10'0 0.0
2015-Mar-21 11:30N 25°47' W 080°10'0 0.0
2015-Mar-21 10:33N 25°47' W 080°10'0 0.0
2015-Mar-21 09:32N 25°47' W 080°10'5 4.7
2015-Mar-21 08:33N 25°46' W 080°05'1110.9
2015-Mar-21 07:33N 25°51' W 079°55'1111.4
2015-Mar-21 06:33N 25°58' W 079°45'1111.3
2015-Mar-21 05:33N 26°03' W 079°34'1010.0
2015-Mar-21 04:33N 26°09' W 079°24'1010.1
2015-Mar-21 03:33N 26°14' W 079°15'1110.9
2015-Mar-21 02:31N 26°16' W 079°02'1111.9
2015-Mar-21 01:33N 26°14' W 078°50'1311.8
2015-Mar-21 00:26N 26°11' W 078°35'1311.5
2015-Mar-20 23:19N 26°08' W 078°21'2111.2
2015-Mar-20 21:26N 25°58' W 078°01'9 9.1
2015-Mar-20 20:28N 25°50' W 077°56'0 0.1
2015-Mar-20 19:30N 25°50' W 077°56'0 0.0
2015-Mar-20 18:23N 25°50' W 077°56'0 0.0
2015-Mar-20 17:32N 25°50' W 077°56'1 0.1
2015-Mar-20 11:23N 25°50' W 077°56'27 0.8
2015-Mar-19 02:04N 26°10' W 078°17'34 7.5
2015-Mar-18 21:32N 26°31' W 078°46'0 0.0
2015-Mar-18 18:24N 26°31' W 078°46'8 1.0
2015-Mar-18 10:08N 26°23' W 078°47'710.3
2015-Mar-18 09:27N 26°17' W 078°42'910.3
2015-Mar-18 08:33N 26°18' W 078°32'1410.7
2015-Mar-18 07:16N 26°20' W 078°17'  

Dump ship's entire track history